sensor_id;sensor_type;location;lat;lon;timestamp;P1;durP1;ratioP1;P2;durP2;ratioP2
51981;SDS011;37998;53.416;6.730;2023-07-31T00:00:51;7.03;;;4.28;;
51981;SDS011;37998;53.416;6.730;2023-07-31T00:03:17;5.28;;;4.00;;
51981;SDS011;37998;53.416;6.730;2023-07-31T00:05:43;6.53;;;3.88;;
51981;SDS011;37998;53.416;6.730;2023-07-31T00:08:09;6.70;;;4.07;;
51981;SDS011;37998;53.416;6.730;2023-07-31T00:10:35;6.80;;;3.92;;
51981;SDS011;37998;53.416;6.730;2023-07-31T00:13:01;5.72;;;3.75;;
51981;SDS011;37998;53.416;6.730;2023-07-31T00:15:27;5.72;;;4.00;;
51981;SDS011;37998;53.416;6.730;2023-07-31T00:17:53;5.18;;;3.80;;
51981;SDS011;37998;53.416;6.730;2023-07-31T00:20:19;6.05;;;4.60;;
51981;SDS011;37998;53.416;6.730;2023-07-31T00:22:45;6.97;;;4.00;;
51981;SDS011;37998;53.416;6.730;2023-07-31T00:25:24;7.00;;;4.63;;
51981;SDS011;37998;53.416;6.730;2023-07-31T00:27:50;6.68;;;4.32;;
51981;SDS011;37998;53.416;6.730;2023-07-31T00:30:15;5.18;;;4.13;;
51981;SDS011;37998;53.416;6.730;2023-07-31T00:32:44;7.50;;;4.82;;
51981;SDS011;37998;53.416;6.730;2023-07-31T00:35:10;7.80;;;4.75;;
51981;SDS011;37998;53.416;6.730;2023-07-31T00:37:36;6.70;;;4.60;;
51981;SDS011;37998;53.416;6.730;2023-07-31T00:40:02;6.68;;;4.72;;
51981;SDS011;37998;53.416;6.730;2023-07-31T00:42:29;8.18;;;5.15;;
51981;SDS011;37998;53.416;6.730;2023-07-31T00:44:55;8.13;;;4.75;;
51981;SDS011;37998;53.416;6.730;2023-07-31T00:47:21;6.82;;;5.20;;
51981;SDS011;37998;53.416;6.730;2023-07-31T00:49:47;6.85;;;5.10;;
51981;SDS011;37998;53.416;6.730;2023-07-31T00:52:13;7.22;;;4.57;;
51981;SDS011;37998;53.416;6.730;2023-07-31T00:54:39;6.30;;;4.65;;
51981;SDS011;37998;53.416;6.730;2023-07-31T00:57:05;7.57;;;5.07;;
51981;SDS011;37998;53.416;6.730;2023-07-31T00:59:33;5.85;;;5.00;;
51981;SDS011;37998;53.416;6.730;2023-07-31T01:01:59;7.30;;;4.53;;
51981;SDS011;37998;53.416;6.730;2023-07-31T01:04:26;6.35;;;5.07;;
51981;SDS011;37998;53.416;6.730;2023-07-31T01:07:15;6.95;;;5.20;;
51981;SDS011;37998;53.416;6.730;2023-07-31T01:09:52;5.93;;;4.70;;
51981;SDS011;37998;53.416;6.730;2023-07-31T01:12:45;7.28;;;4.90;;
51981;SDS011;37998;53.416;6.730;2023-07-31T01:15:12;5.13;;;4.63;;
51981;SDS011;37998;53.416;6.730;2023-07-31T01:17:39;5.72;;;4.68;;
51981;SDS011;37998;53.416;6.730;2023-07-31T01:20:13;6.10;;;4.60;;
51981;SDS011;37998;53.416;6.730;2023-07-31T01:31:35;7.00;;;3.38;;
51981;SDS011;37998;53.416;6.730;2023-07-31T01:34:03;4.57;;;3.15;;
51981;SDS011;37998;53.416;6.730;2023-07-31T01:36:32;4.20;;;3.10;;
51981;SDS011;37998;53.416;6.730;2023-07-31T01:38:59;2.63;;;2.42;;
51981;SDS011;37998;53.416;6.730;2023-07-31T01:41:26;4.47;;;3.30;;
51981;SDS011;37998;53.416;6.730;2023-07-31T01:43:52;3.25;;;2.95;;
51981;SDS011;37998;53.416;6.730;2023-07-31T01:46:18;5.22;;;3.40;;
51981;SDS011;37998;53.416;6.730;2023-07-31T01:48:44;4.63;;;3.45;;
51981;SDS011;37998;53.416;6.730;2023-07-31T01:51:10;4.43;;;3.20;;
51981;SDS011;37998;53.416;6.730;2023-07-31T01:53:36;4.22;;;3.75;;
51981;SDS011;37998;53.416;6.730;2023-07-31T01:56:01;5.82;;;3.83;;
51981;SDS011;37998;53.416;6.730;2023-07-31T01:58:29;5.05;;;3.83;;
51981;SDS011;37998;53.416;6.730;2023-07-31T02:00:55;6.28;;;3.67;;
51981;SDS011;37998;53.416;6.730;2023-07-31T02:03:21;6.93;;;4.05;;
51981;SDS011;37998;53.416;6.730;2023-07-31T02:05:48;4.72;;;4.15;;
51981;SDS011;37998;53.416;6.730;2023-07-31T02:08:15;6.60;;;3.95;;
51981;SDS011;37998;53.416;6.730;2023-07-31T02:10:41;4.82;;;3.65;;
51981;SDS011;37998;53.416;6.730;2023-07-31T02:13:07;5.43;;;3.25;;
51981;SDS011;37998;53.416;6.730;2023-07-31T02:15:34;8.27;;;3.65;;
51981;SDS011;37998;53.416;6.730;2023-07-31T02:17:59;8.43;;;3.17;;
51981;SDS011;37998;53.416;6.730;2023-07-31T02:20:25;3.42;;;3.10;;
51981;SDS011;37998;53.416;6.730;2023-07-31T02:22:51;4.68;;;3.00;;
51981;SDS011;37998;53.416;6.730;2023-07-31T02:25:18;4.13;;;3.35;;
51981;SDS011;37998;53.416;6.730;2023-07-31T02:27:45;3.42;;;3.13;;
51981;SDS011;37998;53.416;6.730;2023-07-31T02:30:11;4.47;;;3.85;;
51981;SDS011;37998;53.416;6.730;2023-07-31T02:32:37;4.60;;;3.83;;
51981;SDS011;37998;53.416;6.730;2023-07-31T02:35:03;5.15;;;3.83;;
51981;SDS011;37998;53.416;6.730;2023-07-31T02:37:29;8.52;;;3.88;;
51981;SDS011;37998;53.416;6.730;2023-07-31T02:39:55;7.43;;;4.22;;
51981;SDS011;37998;53.416;6.730;2023-07-31T02:42:21;5.45;;;4.30;;
51981;SDS011;37998;53.416;6.730;2023-07-31T02:44:47;7.18;;;3.88;;
51981;SDS011;37998;53.416;6.730;2023-07-31T02:47:13;6.80;;;4.72;;
51981;SDS011;37998;53.416;6.730;2023-07-31T02:49:38;5.50;;;4.28;;
51981;SDS011;37998;53.416;6.730;2023-07-31T02:52:05;7.10;;;4.80;;
51981;SDS011;37998;53.416;6.730;2023-07-31T02:54:31;7.82;;;4.85;;
51981;SDS011;37998;53.416;6.730;2023-07-31T02:56:57;6.53;;;4.57;;
51981;SDS011;37998;53.416;6.730;2023-07-31T02:59:23;7.25;;;4.68;;
51981;SDS011;37998;53.416;6.730;2023-07-31T03:01:49;6.95;;;4.75;;
51981;SDS011;37998;53.416;6.730;2023-07-31T03:04:14;5.03;;;4.53;;
51981;SDS011;37998;53.416;6.730;2023-07-31T03:06:40;8.07;;;4.18;;
51981;SDS011;37998;53.416;6.730;2023-07-31T03:09:07;9.25;;;4.55;;
51981;SDS011;37998;53.416;6.730;2023-07-31T03:11:33;4.40;;;4.00;;
51981;SDS011;37998;53.416;6.730;2023-07-31T03:13:58;6.00;;;4.32;;
51981;SDS011;37998;53.416;6.730;2023-07-31T03:16:24;4.30;;;3.90;;
51981;SDS011;37998;53.416;6.730;2023-07-31T03:18:50;5.63;;;4.30;;
51981;SDS011;37998;53.416;6.730;2023-07-31T03:21:16;4.25;;;3.83;;
51981;SDS011;37998;53.416;6.730;2023-07-31T03:23:42;5.43;;;4.22;;
51981;SDS011;37998;53.416;6.730;2023-07-31T03:26:08;4.00;;;3.60;;
51981;SDS011;37998;53.416;6.730;2023-07-31T03:28:35;4.95;;;3.75;;
51981;SDS011;37998;53.416;6.730;2023-07-31T03:31:01;5.45;;;3.75;;
51981;SDS011;37998;53.416;6.730;2023-07-31T03:33:29;4.90;;;3.80;;
51981;SDS011;37998;53.416;6.730;2023-07-31T03:35:55;11.27;;;4.68;;
51981;SDS011;37998;53.416;6.730;2023-07-31T03:38:21;5.25;;;3.80;;
51981;SDS011;37998;53.416;6.730;2023-07-31T03:40:47;5.50;;;3.70;;
51981;SDS011;37998;53.416;6.730;2023-07-31T03:43:15;5.25;;;3.58;;
51981;SDS011;37998;53.416;6.730;2023-07-31T03:45:41;11.23;;;3.90;;
51981;SDS011;37998;53.416;6.730;2023-07-31T03:48:07;6.47;;;3.67;;
51981;SDS011;37998;53.416;6.730;2023-07-31T03:50:34;5.80;;;3.72;;
51981;SDS011;37998;53.416;6.730;2023-07-31T03:53:00;4.35;;;3.72;;
51981;SDS011;37998;53.416;6.730;2023-07-31T03:55:26;4.93;;;3.53;;
51981;SDS011;37998;53.416;6.730;2023-07-31T03:57:52;4.13;;;3.50;;
51981;SDS011;37998;53.416;6.730;2023-07-31T04:00:18;5.10;;;3.17;;
51981;SDS011;37998;53.416;6.730;2023-07-31T04:02:44;4.63;;;3.20;;
51981;SDS011;37998;53.416;6.730;2023-07-31T04:05:09;5.57;;;3.40;;
51981;SDS011;37998;53.416;6.730;2023-07-31T04:07:36;6.00;;;3.63;;
51981;SDS011;37998;53.416;6.730;2023-07-31T04:10:02;5.38;;;3.22;;
51981;SDS011;37998;53.416;6.730;2023-07-31T04:12:29;4.90;;;3.63;;
51981;SDS011;37998;53.416;6.730;2023-07-31T04:14:54;4.90;;;3.38;;
51981;SDS011;37998;53.416;6.730;2023-07-31T04:17:20;7.32;;;3.22;;
51981;SDS011;37998;53.416;6.730;2023-07-31T04:19:46;4.43;;;3.05;;
51981;SDS011;37998;53.416;6.730;2023-07-31T04:22:12;4.18;;;2.72;;
51981;SDS011;37998;53.416;6.730;2023-07-31T04:24:38;4.78;;;3.15;;
51981;SDS011;37998;53.416;6.730;2023-07-31T04:27:04;5.55;;;3.30;;
51981;SDS011;37998;53.416;6.730;2023-07-31T04:29:30;4.50;;;3.50;;
51981;SDS011;37998;53.416;6.730;2023-07-31T04:31:59;3.35;;;2.97;;
51981;SDS011;37998;53.416;6.730;2023-07-31T04:34:25;3.10;;;2.80;;
51981;SDS011;37998;53.416;6.730;2023-07-31T04:36:51;3.35;;;2.70;;
51981;SDS011;37998;53.416;6.730;2023-07-31T04:39:17;3.88;;;2.38;;
51981;SDS011;37998;53.416;6.730;2023-07-31T04:41:43;2.92;;;2.17;;
51981;SDS011;37998;53.416;6.730;2023-07-31T04:44:12;6.90;;;2.20;;
51981;SDS011;37998;53.416;6.730;2023-07-31T04:46:38;2.47;;;1.77;;
51981;SDS011;37998;53.416;6.730;2023-07-31T04:49:04;3.95;;;2.08;;
51981;SDS011;37998;53.416;6.730;2023-07-31T04:51:29;6.75;;;2.20;;
51981;SDS011;37998;53.416;6.730;2023-07-31T04:53:56;2.30;;;2.00;;
51981;SDS011;37998;53.416;6.730;2023-07-31T04:56:22;2.53;;;1.77;;
51981;SDS011;37998;53.416;6.730;2023-07-31T04:58:47;3.83;;;1.60;;
51981;SDS011;37998;53.416;6.730;2023-07-31T05:01:13;4.40;;;1.60;;
51981;SDS011;37998;53.416;6.730;2023-07-31T05:03:39;5.30;;;1.60;;
51981;SDS011;37998;53.416;6.730;2023-07-31T05:06:05;1.70;;;1.48;;
51981;SDS011;37998;53.416;6.730;2023-07-31T05:08:34;5.03;;;1.52;;
51981;SDS011;37998;53.416;6.730;2023-07-31T05:11:00;3.92;;;1.75;;
51981;SDS011;37998;53.416;6.730;2023-07-31T05:13:26;3.67;;;1.80;;
51981;SDS011;37998;53.416;6.730;2023-07-31T05:15:52;3.50;;;1.88;;
51981;SDS011;37998;53.416;6.730;2023-07-31T05:18:18;3.55;;;2.08;;
51981;SDS011;37998;53.416;6.730;2023-07-31T05:20:43;4.45;;;2.05;;
51981;SDS011;37998;53.416;6.730;2023-07-31T05:23:09;4.95;;;1.98;;
51981;SDS011;37998;53.416;6.730;2023-07-31T05:25:35;2.65;;;1.88;;
51981;SDS011;37998;53.416;6.730;2023-07-31T05:28:01;4.50;;;1.63;;
51981;SDS011;37998;53.416;6.730;2023-07-31T05:30:29;2.47;;;1.70;;
51981;SDS011;37998;53.416;6.730;2023-07-31T05:32:56;3.25;;;1.70;;
51981;SDS011;37998;53.416;6.730;2023-07-31T05:35:22;3.05;;;1.88;;
51981;SDS011;37998;53.416;6.730;2023-07-31T05:37:48;1.77;;;1.58;;
51981;SDS011;37998;53.416;6.730;2023-07-31T05:40:16;2.38;;;1.80;;
51981;SDS011;37998;53.416;6.730;2023-07-31T05:42:42;2.47;;;1.85;;
51981;SDS011;37998;53.416;6.730;2023-07-31T05:45:08;1.80;;;1.52;;
51981;SDS011;37998;53.416;6.730;2023-07-31T05:47:41;1.65;;;1.27;;
51981;SDS011;37998;53.416;6.730;2023-07-31T05:50:07;1.67;;;1.40;;
51981;SDS011;37998;53.416;6.730;2023-07-31T05:52:33;1.58;;;1.30;;
51981;SDS011;37998;53.416;6.730;2023-07-31T05:55:02;1.42;;;1.30;;
51981;SDS011;37998;53.416;6.730;2023-07-31T05:57:28;3.42;;;1.40;;
51981;SDS011;37998;53.416;6.730;2023-07-31T05:59:54;3.53;;;1.40;;
51981;SDS011;37998;53.416;6.730;2023-07-31T06:02:20;1.98;;;1.30;;
51981;SDS011;37998;53.416;6.730;2023-07-31T06:04:46;1.48;;;1.27;;
51981;SDS011;37998;53.416;6.730;2023-07-31T06:07:12;1.92;;;1.33;;
51981;SDS011;37998;53.416;6.730;2023-07-31T06:09:38;1.20;;;1.10;;
51981;SDS011;37998;53.416;6.730;2023-07-31T06:12:04;4.78;;;1.52;;
51981;SDS011;37998;53.416;6.730;2023-07-31T06:14:30;1.40;;;1.30;;
51981;SDS011;37998;53.416;6.730;2023-07-31T06:16:56;1.20;;;1.10;;
51981;SDS011;37998;53.416;6.730;2023-07-31T06:19:22;1.55;;;1.15;;
51981;SDS011;37998;53.416;6.730;2023-07-31T06:21:48;2.13;;;1.40;;
51981;SDS011;37998;53.416;6.730;2023-07-31T06:24:14;2.35;;;1.30;;
51981;SDS011;37998;53.416;6.730;2023-07-31T06:26:44;2.25;;;1.15;;
51981;SDS011;37998;53.416;6.730;2023-07-31T06:29:10;4.25;;;1.40;;
51981;SDS011;37998;53.416;6.730;2023-07-31T06:31:36;1.20;;;1.10;;
51981;SDS011;37998;53.416;6.730;2023-07-31T06:34:02;1.20;;;1.10;;
51981;SDS011;37998;53.416;6.730;2023-07-31T06:36:28;1.58;;;1.23;;
51981;SDS011;37998;53.416;6.730;2023-07-31T06:38:53;2.30;;;1.10;;
51981;SDS011;37998;53.416;6.730;2023-07-31T06:41:19;2.50;;;0.90;;
51981;SDS011;37998;53.416;6.730;2023-07-31T06:43:46;1.38;;;0.95;;
51981;SDS011;37998;53.416;6.730;2023-07-31T06:46:12;1.77;;;0.95;;
51981;SDS011;37998;53.416;6.730;2023-07-31T06:48:38;2.20;;;1.05;;
51981;SDS011;37998;53.416;6.730;2023-07-31T06:51:05;6.40;;;4.05;;
51981;SDS011;37998;53.416;6.730;2023-07-31T06:53:31;2.35;;;1.90;;
51981;SDS011;37998;53.416;6.730;2023-07-31T06:55:56;1.30;;;1.02;;
51981;SDS011;37998;53.416;6.730;2023-07-31T06:58:22;1.42;;;1.10;;
51981;SDS011;37998;53.416;6.730;2023-07-31T07:00:48;2.88;;;1.50;;
51981;SDS011;37998;53.416;6.730;2023-07-31T07:03:16;1.65;;;1.52;;
51981;SDS011;37998;53.416;6.730;2023-07-31T07:05:45;3.05;;;1.80;;
51981;SDS011;37998;53.416;6.730;2023-07-31T07:08:11;2.10;;;1.80;;
51981;SDS011;37998;53.416;6.730;2023-07-31T07:10:37;2.67;;;1.40;;
51981;SDS011;37998;53.416;6.730;2023-07-31T07:13:06;3.58;;;1.75;;
51981;SDS011;37998;53.416;6.730;2023-07-31T07:15:32;3.25;;;1.35;;
51981;SDS011;37998;53.416;6.730;2023-07-31T07:17:58;2.72;;;1.70;;
51981;SDS011;37998;53.416;6.730;2023-07-31T07:20:24;3.35;;;1.80;;
51981;SDS011;37998;53.416;6.730;2023-07-31T07:22:50;1.52;;;1.40;;
51981;SDS011;37998;53.416;6.730;2023-07-31T07:25:16;1.25;;;1.15;;
51981;SDS011;37998;53.416;6.730;2023-07-31T07:27:42;2.15;;;1.20;;
51981;SDS011;37998;53.416;6.730;2023-07-31T07:30:09;3.67;;;1.40;;
51981;SDS011;37998;53.416;6.730;2023-07-31T07:32:35;1.73;;;1.50;;
51981;SDS011;37998;53.416;6.730;2023-07-31T07:35:01;3.97;;;1.73;;
51981;SDS011;37998;53.416;6.730;2023-07-31T07:37:27;4.53;;;1.98;;
51981;SDS011;37998;53.416;6.730;2023-07-31T07:40:02;4.13;;;1.90;;
51981;SDS011;37998;53.416;6.730;2023-07-31T07:42:30;3.95;;;2.00;;
51981;SDS011;37998;53.416;6.730;2023-07-31T07:44:56;3.72;;;2.22;;
51981;SDS011;37998;53.416;6.730;2023-07-31T07:47:23;4.45;;;2.35;;
51981;SDS011;37998;53.416;6.730;2023-07-31T07:49:49;6.15;;;2.47;;
51981;SDS011;37998;53.416;6.730;2023-07-31T07:52:14;7.82;;;3.40;;
51981;SDS011;37998;53.416;6.730;2023-07-31T07:54:40;8.20;;;3.22;;
51981;SDS011;37998;53.416;6.730;2023-07-31T07:57:06;11.45;;;4.07;;
51981;SDS011;37998;53.416;6.730;2023-07-31T07:59:32;7.47;;;4.03;;
51981;SDS011;37998;53.416;6.730;2023-07-31T08:01:58;11.10;;;4.00;;
51981;SDS011;37998;53.416;6.730;2023-07-31T08:04:24;9.68;;;4.55;;
51981;SDS011;37998;53.416;6.730;2023-07-31T08:06:50;10.18;;;4.63;;
51981;SDS011;37998;53.416;6.730;2023-07-31T08:09:16;14.35;;;5.40;;
51981;SDS011;37998;53.416;6.730;2023-07-31T08:11:41;16.38;;;5.00;;
51981;SDS011;37998;53.416;6.730;2023-07-31T08:14:07;11.90;;;4.45;;
51981;SDS011;37998;53.416;6.730;2023-07-31T08:16:33;11.20;;;4.63;;
51981;SDS011;37998;53.416;6.730;2023-07-31T08:18:59;11.18;;;4.18;;
51981;SDS011;37998;53.416;6.730;2023-07-31T08:21:25;14.48;;;3.78;;
51981;SDS011;37998;53.416;6.730;2023-07-31T08:23:51;15.98;;;4.72;;
51981;SDS011;37998;53.416;6.730;2023-07-31T08:26:17;12.10;;;4.90;;
51981;SDS011;37998;53.416;6.730;2023-07-31T08:28:44;12.32;;;4.35;;
51981;SDS011;37998;53.416;6.730;2023-07-31T08:31:16;10.05;;;4.28;;
51981;SDS011;37998;53.416;6.730;2023-07-31T08:33:42;10.32;;;3.88;;
51981;SDS011;37998;53.416;6.730;2023-07-31T08:36:08;7.28;;;3.92;;
51981;SDS011;37998;53.416;6.730;2023-07-31T08:38:33;7.80;;;3.92;;
51981;SDS011;37998;53.416;6.730;2023-07-31T08:40:59;11.45;;;4.63;;
51981;SDS011;37998;53.416;6.730;2023-07-31T08:43:26;12.10;;;4.40;;
51981;SDS011;37998;53.416;6.730;2023-07-31T08:45:52;5.28;;;2.95;;
51981;SDS011;37998;53.416;6.730;2023-07-31T08:48:20;5.97;;;2.95;;
51981;SDS011;37998;53.416;6.730;2023-07-31T08:50:47;1.90;;;1.65;;
51981;SDS011;37998;53.416;6.730;2023-07-31T08:53:13;1.33;;;1.17;;
51981;SDS011;37998;53.416;6.730;2023-07-31T08:55:39;1.42;;;1.00;;
51981;SDS011;37998;53.416;6.730;2023-07-31T08:58:06;1.90;;;1.40;;
51981;SDS011;37998;53.416;6.730;2023-07-31T09:00:32;0.80;;;0.80;;
51981;SDS011;37998;53.416;6.730;2023-07-31T09:03:00;1.25;;;1.10;;
51981;SDS011;37998;53.416;6.730;2023-07-31T09:05:29;1.10;;;1.00;;
51981;SDS011;37998;53.416;6.730;2023-07-31T09:07:56;2.50;;;1.25;;
51981;SDS011;37998;53.416;6.730;2023-07-31T09:10:23;1.23;;;1.13;;
51981;SDS011;37998;53.416;6.730;2023-07-31T09:12:50;1.27;;;1.10;;
51981;SDS011;37998;53.416;6.730;2023-07-31T09:15:17;1.60;;;1.50;;
51981;SDS011;37998;53.416;6.730;2023-07-31T09:17:44;1.48;;;1.38;;
51981;SDS011;37998;53.416;6.730;2023-07-31T09:20:14;1.85;;;1.67;;
51981;SDS011;37998;53.416;6.730;2023-07-31T09:22:44;2.63;;;1.45;;
51981;SDS011;37998;53.416;6.730;2023-07-31T09:28:01;3.22;;;1.48;;
51981;SDS011;37998;53.416;6.730;2023-07-31T09:30:29;1.40;;;1.30;;
51981;SDS011;37998;53.416;6.730;2023-07-31T09:33:05;3.60;;;1.55;;
51981;SDS011;37998;53.416;6.730;2023-07-31T09:35:32;1.58;;;1.48;;
51981;SDS011;37998;53.416;6.730;2023-07-31T09:38:03;4.90;;;1.90;;
51981;SDS011;37998;53.416;6.730;2023-07-31T09:40:38;1.83;;;1.52;;
51981;SDS011;37998;53.416;6.730;2023-07-31T09:43:12;1.38;;;1.30;;
51981;SDS011;37998;53.416;6.730;2023-07-31T09:45:42;1.42;;;1.23;;
51981;SDS011;37998;53.416;6.730;2023-07-31T09:48:11;1.25;;;1.25;;
51981;SDS011;37998;53.416;6.730;2023-07-31T09:50:39;1.38;;;1.27;;
51981;SDS011;37998;53.416;6.730;2023-07-31T09:53:08;1.40;;;1.30;;
51981;SDS011;37998;53.416;6.730;2023-07-31T09:55:35;1.42;;;1.38;;
51981;SDS011;37998;53.416;6.730;2023-07-31T09:58:06;1.83;;;1.10;;
51981;SDS011;37998;53.416;6.730;2023-07-31T10:00:33;1.50;;;1.30;;
51981;SDS011;37998;53.416;6.730;2023-07-31T10:03:00;1.23;;;1.13;;
51981;SDS011;37998;53.416;6.730;2023-07-31T10:05:35;3.40;;;1.20;;
51981;SDS011;37998;53.416;6.730;2023-07-31T10:08:03;1.25;;;1.25;;
51981;SDS011;37998;53.416;6.730;2023-07-31T10:10:31;2.67;;;1.67;;
51981;SDS011;37998;53.416;6.730;2023-07-31T10:13:00;1.63;;;1.52;;
51981;SDS011;37998;53.416;6.730;2023-07-31T10:15:27;1.50;;;1.40;;
51981;SDS011;37998;53.416;6.730;2023-07-31T10:17:54;1.50;;;1.40;;
51981;SDS011;37998;53.416;6.730;2023-07-31T10:20:20;1.35;;;1.20;;
51981;SDS011;37998;53.416;6.730;2023-07-31T10:22:47;1.55;;;1.10;;
51981;SDS011;37998;53.416;6.730;2023-07-31T10:25:15;2.10;;;1.10;;
51981;SDS011;37998;53.416;6.730;2023-07-31T10:27:41;1.35;;;1.08;;
51981;SDS011;37998;53.416;6.730;2023-07-31T10:30:11;1.35;;;0.88;;
51981;SDS011;37998;53.416;6.730;2023-07-31T10:32:40;5.30;;;1.57;;
51981;SDS011;37998;53.416;6.730;2023-07-31T10:35:08;3.17;;;1.27;;
51981;SDS011;37998;53.416;6.730;2023-07-31T10:37:36;1.25;;;0.93;;
51981;SDS011;37998;53.416;6.730;2023-07-31T10:40:10;3.42;;;1.42;;
51981;SDS011;37998;53.416;6.730;2023-07-31T10:45:31;9.63;;;1.80;;
51981;SDS011;37998;53.416;6.730;2023-07-31T10:48:04;3.42;;;1.40;;
51981;SDS011;37998;53.416;6.730;2023-07-31T10:50:31;3.25;;;1.70;;
51981;SDS011;37998;53.416;6.730;2023-07-31T10:53:01;3.65;;;1.50;;
51981;SDS011;37998;53.416;6.730;2023-07-31T10:55:30;3.08;;;1.98;;
51981;SDS011;37998;53.416;6.730;2023-07-31T10:57:58;4.28;;;1.70;;
51981;SDS011;37998;53.416;6.730;2023-07-31T11:00:42;6.60;;;2.08;;
51981;SDS011;37998;53.416;6.730;2023-07-31T11:03:11;3.83;;;2.42;;
51981;SDS011;37998;53.416;6.730;2023-07-31T11:08:16;5.28;;;2.20;;
51981;SDS011;37998;53.416;6.730;2023-07-31T11:10:43;7.32;;;3.13;;
51981;SDS011;37998;53.416;6.730;2023-07-31T11:13:09;8.52;;;2.83;;
51981;SDS011;37998;53.416;6.730;2023-07-31T11:15:35;11.23;;;2.70;;
51981;SDS011;37998;53.416;6.730;2023-07-31T11:18:01;4.97;;;2.10;;
51981;SDS011;37998;53.416;6.730;2023-07-31T11:20:34;4.35;;;2.08;;
51981;SDS011;37998;53.416;6.730;2023-07-31T11:23:05;6.75;;;2.63;;
51981;SDS011;37998;53.416;6.730;2023-07-31T11:25:33;4.45;;;2.40;;
51981;SDS011;37998;53.416;6.730;2023-07-31T11:28:03;5.63;;;2.35;;
51981;SDS011;37998;53.416;6.730;2023-07-31T11:30:30;7.00;;;2.70;;
51981;SDS011;37998;53.416;6.730;2023-07-31T11:32:56;8.80;;;2.75;;
51981;SDS011;37998;53.416;6.730;2023-07-31T11:35:22;6.85;;;2.67;;
51981;SDS011;37998;53.416;6.730;2023-07-31T11:37:48;6.72;;;2.63;;
51981;SDS011;37998;53.416;6.730;2023-07-31T11:40:14;8.48;;;2.60;;
51981;SDS011;37998;53.416;6.730;2023-07-31T11:42:41;6.07;;;2.60;;
51981;SDS011;37998;53.416;6.730;2023-07-31T11:45:07;5.65;;;2.80;;
51981;SDS011;37998;53.416;6.730;2023-07-31T11:47:37;4.05;;;1.98;;
51981;SDS011;37998;53.416;6.730;2023-07-31T11:50:04;7.72;;;2.35;;
51981;SDS011;37998;53.416;6.730;2023-07-31T11:52:42;5.07;;;2.47;;
51981;SDS011;37998;53.416;6.730;2023-07-31T11:55:10;5.50;;;2.58;;
51981;SDS011;37998;53.416;6.730;2023-07-31T11:57:38;5.03;;;2.38;;
51981;SDS011;37998;53.416;6.730;2023-07-31T12:00:06;6.38;;;2.40;;
51981;SDS011;37998;53.416;6.730;2023-07-31T12:02:34;7.22;;;2.60;;
51981;SDS011;37998;53.416;6.730;2023-07-31T12:05:01;5.45;;;3.17;;
51981;SDS011;37998;53.416;6.730;2023-07-31T12:07:27;6.55;;;3.60;;
51981;SDS011;37998;53.416;6.730;2023-07-31T12:10:07;12.05;;;3.92;;
51981;SDS011;37998;53.416;6.730;2023-07-31T12:12:33;8.02;;;3.30;;
51981;SDS011;37998;53.416;6.730;2023-07-31T12:14:59;10.32;;;3.67;;
51981;SDS011;37998;53.416;6.730;2023-07-31T12:17:25;7.40;;;2.90;;
51981;SDS011;37998;53.416;6.730;2023-07-31T12:19:51;6.82;;;3.50;;
51981;SDS011;37998;53.416;6.730;2023-07-31T12:22:17;7.30;;;2.83;;
51981;SDS011;37998;53.416;6.730;2023-07-31T12:24:43;5.00;;;2.20;;
51981;SDS011;37998;53.416;6.730;2023-07-31T12:29:36;3.70;;;2.50;;
51981;SDS011;37998;53.416;6.730;2023-07-31T12:32:03;5.85;;;2.38;;
51981;SDS011;37998;53.416;6.730;2023-07-31T12:34:29;5.20;;;2.30;;
51981;SDS011;37998;53.416;6.730;2023-07-31T12:36:55;8.23;;;3.00;;
51981;SDS011;37998;53.416;6.730;2023-07-31T12:39:21;6.10;;;2.25;;
51981;SDS011;37998;53.416;6.730;2023-07-31T12:41:47;3.47;;;2.40;;
51981;SDS011;37998;53.416;6.730;2023-07-31T12:44:13;4.15;;;2.55;;
51981;SDS011;37998;53.416;6.730;2023-07-31T12:46:39;5.07;;;2.20;;
51981;SDS011;37998;53.416;6.730;2023-07-31T12:49:10;5.20;;;1.73;;
51981;SDS011;37998;53.416;6.730;2023-07-31T12:51:36;3.72;;;1.90;;
51981;SDS011;37998;53.416;6.730;2023-07-31T12:54:03;3.42;;;2.17;;
51981;SDS011;37998;53.416;6.730;2023-07-31T12:56:29;5.88;;;2.40;;
51981;SDS011;37998;53.416;6.730;2023-07-31T12:58:55;7.28;;;2.33;;
51981;SDS011;37998;53.416;6.730;2023-07-31T13:01:21;3.83;;;2.20;;
51981;SDS011;37998;53.416;6.730;2023-07-31T13:03:47;5.13;;;2.30;;
51981;SDS011;37998;53.416;6.730;2023-07-31T13:06:13;6.13;;;2.58;;
51981;SDS011;37998;53.416;6.730;2023-07-31T13:08:39;7.82;;;2.17;;
51981;SDS011;37998;53.416;6.730;2023-07-31T13:11:05;6.28;;;2.40;;
51981;SDS011;37998;53.416;6.730;2023-07-31T13:13:31;7.07;;;2.70;;
51981;SDS011;37998;53.416;6.730;2023-07-31T13:15:57;5.22;;;2.45;;
51981;SDS011;37998;53.416;6.730;2023-07-31T13:18:23;4.32;;;2.30;;
51981;SDS011;37998;53.416;6.730;2023-07-31T13:20:49;5.20;;;1.88;;
51981;SDS011;37998;53.416;6.730;2023-07-31T13:23:18;3.28;;;1.50;;
51981;SDS011;37998;53.416;6.730;2023-07-31T13:25:44;2.20;;;1.55;;
51981;SDS011;37998;53.416;6.730;2023-07-31T13:28:10;3.22;;;1.45;;
51981;SDS011;37998;53.416;6.730;2023-07-31T13:30:36;3.20;;;1.70;;
51981;SDS011;37998;53.416;6.730;2023-07-31T13:33:02;1.48;;;1.35;;
51981;SDS011;37998;53.416;6.730;2023-07-31T13:35:28;3.70;;;1.90;;
51981;SDS011;37998;53.416;6.730;2023-07-31T13:37:54;3.75;;;1.73;;
51981;SDS011;37998;53.416;6.730;2023-07-31T13:40:19;3.40;;;1.65;;
51981;SDS011;37998;53.416;6.730;2023-07-31T13:42:45;2.65;;;1.60;;
51981;SDS011;37998;53.416;6.730;2023-07-31T13:45:13;4.25;;;1.50;;
51981;SDS011;37998;53.416;6.730;2023-07-31T13:47:39;3.55;;;1.90;;
51981;SDS011;37998;53.416;6.730;2023-07-31T13:50:05;6.15;;;1.90;;
51981;SDS011;37998;53.416;6.730;2023-07-31T13:52:31;3.85;;;1.85;;
51981;SDS011;37998;53.416;6.730;2023-07-31T13:54:57;3.78;;;1.70;;
51981;SDS011;37998;53.416;6.730;2023-07-31T13:57:23;2.92;;;1.65;;
51981;SDS011;37998;53.416;6.730;2023-07-31T13:59:51;3.97;;;1.70;;
51981;SDS011;37998;53.416;6.730;2023-07-31T14:02:17;7.28;;;1.90;;
51981;SDS011;37998;53.416;6.730;2023-07-31T14:04:43;5.72;;;2.22;;
51981;SDS011;37998;53.416;6.730;2023-07-31T14:07:09;4.05;;;2.00;;
51981;SDS011;37998;53.416;6.730;2023-07-31T14:09:35;5.97;;;2.60;;
51981;SDS011;37998;53.416;6.730;2023-07-31T14:12:01;7.13;;;2.58;;
51981;SDS011;37998;53.416;6.730;2023-07-31T14:14:27;8.23;;;3.22;;
51981;SDS011;37998;53.416;6.730;2023-07-31T14:16:53;8.13;;;2.47;;
51981;SDS011;37998;53.416;6.730;2023-07-31T14:19:19;7.40;;;2.63;;
51981;SDS011;37998;53.416;6.730;2023-07-31T14:21:45;7.63;;;2.80;;
51981;SDS011;37998;53.416;6.730;2023-07-31T14:24:11;7.70;;;2.55;;
51981;SDS011;37998;53.416;6.730;2023-07-31T14:26:37;7.15;;;2.63;;
51981;SDS011;37998;53.416;6.730;2023-07-31T14:29:03;11.18;;;2.35;;
51981;SDS011;37998;53.416;6.730;2023-07-31T14:31:30;9.82;;;2.70;;
51981;SDS011;37998;53.416;6.730;2023-07-31T14:33:55;5.95;;;2.65;;
51981;SDS011;37998;53.416;6.730;2023-07-31T14:36:22;7.30;;;2.85;;
51981;SDS011;37998;53.416;6.730;2023-07-31T14:38:47;8.93;;;2.63;;
51981;SDS011;37998;53.416;6.730;2023-07-31T14:41:13;8.25;;;2.92;;
51981;SDS011;37998;53.416;6.730;2023-07-31T14:43:39;8.00;;;3.20;;
51981;SDS011;37998;53.416;6.730;2023-07-31T14:46:05;6.72;;;2.80;;
51981;SDS011;37998;53.416;6.730;2023-07-31T14:48:31;7.07;;;2.45;;
51981;SDS011;37998;53.416;6.730;2023-07-31T14:51:00;5.13;;;2.75;;
51981;SDS011;37998;53.416;6.730;2023-07-31T14:53:26;6.10;;;2.63;;
51981;SDS011;37998;53.416;6.730;2023-07-31T14:55:52;6.78;;;3.10;;
51981;SDS011;37998;53.416;6.730;2023-07-31T14:58:21;7.70;;;3.17;;
51981;SDS011;37998;53.416;6.730;2023-07-31T15:00:47;5.22;;;2.90;;
51981;SDS011;37998;53.416;6.730;2023-07-31T15:03:13;10.35;;;3.22;;
51981;SDS011;37998;53.416;6.730;2023-07-31T15:05:39;7.30;;;2.75;;